Time;durP1;ratioP1;P1;durP2;ratioP2;P2;SDS_P1;SDS_P2;PMS_P1;PMS_P2;Temp;Humidity;BMP_temperature;BMP_pressure;BME280_temperature;BME280_humidity;BME280_pressure;Samples;Min_cycle;Max_cycle;Signal;HPM_P1;HPM_P2
2023/05/31 00:02:08;;;;;;;3.97;2.03;;;16.80;37.50;;;19.41;30.26;97970.22;4979432;28;20042;-59
2023/05/31 00:04:36;;;;;;;4.68;2.38;;;16.80;37.50;;;19.35;30.39;97971.88;4965427;28;20049;-59
2023/05/31 00:07:06;;;;;;;3.65;1.83;;;16.70;37.70;;;19.32;30.31;97971.44;4963126;28;20057;-59
2023/05/31 00:09:33;;;;;;;4.32;2.33;;;16.70;38.30;;;19.31;30.37;97967.09;4962052;28;20066;-58
2023/05/31 00:12:01;;;;;;;3.17;1.90;;;16.70;37.60;;;19.28;30.31;97973.75;4959519;28;20062;-58
2023/05/31 00:14:29;;;;;;;5.85;1.95;;;16.70;37.70;;;19.24;30.38;97967.09;4965436;28;20046;-59
2023/05/31 00:16:56;;;;;;;4.00;2.50;;;16.60;37.80;;;19.20;30.62;97968.56;4964105;28;20046;-58
2023/05/31 00:19:27;;;;;;;3.67;2.17;;;16.60;38.10;;;19.15;30.75;97961.06;4961674;28;20046;-60
2023/05/31 00:21:55;;;;;;;5.25;3.22;;;16.60;38.50;;;19.11;31.03;97967.94;4962520;28;20043;-57
2023/05/31 00:24:23;;;;;;;3.60;2.55;;;16.50;38.80;;;19.06;30.98;97965.03;4965177;28;20069;-58
2023/05/31 00:26:50;;;;;;;3.03;1.98;;;16.40;39.00;;;19.00;30.99;97968.53;4964732;28;20440;-59
2023/05/31 00:29:18;;;;;;;5.05;3.25;;;16.40;38.70;;;18.96;31.23;97972.69;4961562;28;20503;-58
2023/05/31 00:31:45;;;;;;;3.85;1.80;;;16.30;39.20;;;18.90;31.61;97968.97;4961266;28;20443;-57
2023/05/31 00:34:13;;;;;;;3.15;1.92;;;16.20;39.60;;;18.87;31.62;97964.00;4975732;28;20051;-57
2023/05/31 00:36:41;;;;;;;4.97;2.10;;;16.20;39.60;;;18.82;32.12;97963.78;4960068;28;20043;-58
2023/05/31 00:39:10;;;;;;;3.90;2.00;;;16.20;40.20;;;18.78;31.70;97954.41;4962226;28;20043;-58
2023/05/31 00:41:37;;;;;;;6.20;2.38;;;16.10;39.70;;;18.73;31.73;97957.72;4964330;28;20043;-59
2023/05/31 00:44:05;;;;;;;4.95;2.88;;;16.10;39.70;;;18.69;31.98;97953.78;4963834;28;20070;-58
2023/05/31 00:46:36;;;;;;;4.40;2.83;;;16.00;39.90;;;18.64;32.01;97957.06;4963736;28;20521;-58
2023/05/31 00:49:05;;;;;;;3.15;1.95;;;16.00;40.20;;;18.61;32.43;97957.50;4960796;28;20502;-58
2023/05/31 00:51:34;;;;;;;4.85;2.08;;;16.00;40.60;;;18.57;32.49;97966.19;4959694;28;20054;-58
2023/05/31 00:54:03;;;;;;;3.60;2.55;;;15.90;40.80;;;18.53;32.08;97954.97;4963131;28;20050;-56
2023/05/31 00:56:30;;;;;;;3.85;2.00;;;15.90;40.30;;;18.52;32.27;97958.72;4963163;28;20411;-58
2023/05/31 00:59:00;;;;;;;3.78;2.10;;;15.90;40.50;;;18.46;32.12;97954.97;4961619;28;20047;-58
2023/05/31 01:01:32;;;;;;;4.20;2.13;;;15.80;40.60;;;18.44;32.21;97954.34;4961011;28;20092;-58
2023/05/31 01:04:02;;;;;;;5.63;2.33;;;15.80;40.40;;;18.44;32.23;97958.94;4961734;28;20431;-58
2023/05/31 01:06:32;;;;;;;3.92;2.33;;;15.80;40.60;;;18.38;32.56;97957.88;4964482;28;20046;-58
2023/05/31 01:09:07;;;;;;;6.50;2.55;;;15.70;41.10;;;18.34;32.48;97961.16;4961180;28;20046;-58
2023/05/31 01:12:02;;;;;;;5.40;2.08;;;15.70;41.20;;;18.30;32.46;97964.28;4960134;28;20544;-58
2023/05/31 01:14:39;;;;;;;3.63;1.83;;;15.60;42.30;;;18.27;32.44;97959.28;4949659;28;20059;-58
2023/05/31 01:17:51;;;;;;;4.50;2.00;;;15.60;41.00;;;18.22;32.30;97958.22;4946080;28;20050;-58
2023/05/31 01:20:24;;;;;;;5.70;2.75;;;15.50;41.70;;;18.19;32.60;97955.94;4960016;28;20043;-58
2023/05/31 01:23:03;;;;;;;3.25;2.05;;;15.50;41.60;;;18.12;32.52;97960.47;4944317;28;20474;-57
2023/05/31 01:25:58;;;;;;;5.15;1.70;;;15.40;41.10;;;18.06;32.74;97954.84;4962283;28;20050;-58
2023/05/31 01:28:29;;;;;;;4.63;2.10;;;15.40;42.00;;;18.05;32.67;97958.59;4975382;28;20055;-58
2023/05/31 01:31:07;;;;;;;3.88;1.85;;;15.40;41.60;;;18.02;33.00;97958.97;4976476;28;20447;-57
2023/05/31 01:33:36;;;;;;;2.60;1.95;;;15.40;42.20;;;17.98;33.11;97957.72;4964051;28;20043;-57
2023/05/31 01:36:03;;;;;;;4.75;2.00;;;15.40;42.10;;;17.94;33.14;97963.72;4976878;28;20082;-58
2023/05/31 01:38:31;;;;;;;4.97;2.00;;;15.30;42.20;;;17.89;33.15;97965.16;4960633;28;20050;-57
2023/05/31 01:40:59;;;;;;;5.30;2.20;;;15.20;42.20;;;17.88;33.19;97965.34;4960699;28;20050;-57
2023/05/31 01:43:28;;;;;;;3.42;1.95;;;15.20;41.90;;;17.88;33.19;97954.59;4962397;28;20050;-57
2023/05/31 01:45:57;;;;;;;3.00;2.55;;;15.30;42.00;;;17.86;33.24;97962.03;4966413;28;20046;-58
2023/05/31 01:48:26;;;;;;;5.55;2.13;;;15.30;41.80;;;17.85;33.44;97965.75;4963127;28;20043;-57
2023/05/31 01:50:57;;;;;;;3.78;1.95;;;15.30;42.00;;;17.81;33.34;97964.44;4963354;28;20051;-57
2023/05/31 01:53:25;;;;;;;3.75;1.95;;;15.30;42.30;;;17.81;33.26;97964.44;4966306;28;20046;-58
2023/05/31 01:55:54;;;;;;;3.92;2.22;;;15.20;41.90;;;17.77;33.35;97965.88;4965587;28;20042;-58
2023/05/31 01:58:22;;;;;;;4.95;2.40;;;15.20;42.00;;;17.73;33.49;97975.41;4964347;28;20043;-57
2023/05/31 02:00:51;;;;;;;5.32;2.15;;;15.10;42.20;;;17.70;33.53;97972.06;4962974;28;20051;-57
2023/05/31 02:03:19;;;;;;;4.78;2.25;;;15.10;42.30;;;17.68;33.44;97966.06;4950942;28;20042;-58
2023/05/31 02:06:00;;;;;;;8.82;2.20;;;15.10;42.30;;;17.66;33.69;97968.13;4967767;28;20035;-57
2023/05/31 02:08:28;;;;;;;4.80;2.00;;;15.00;43.90;;;17.65;33.75;97962.94;4958052;28;20043;-57
2023/05/31 02:10:56;;;;;;;2.75;1.83;;;15.00;42.60;;;17.65;33.89;97971.00;4963437;28;20051;-58
2023/05/31 02:13:30;;;;;;;3.85;2.38;;;15.00;42.70;;;17.61;33.88;97958.97;4981988;28;20051;-58
2023/05/31 02:15:57;;;;;;;4.75;2.00;;;15.00;42.80;;;17.61;33.85;97965.19;4963928;28;20058;-57
2023/05/31 02:18:29;;;;;;;2.95;1.60;;;15.00;43.10;;;17.57;34.01;97958.53;4946261;29;20436;-56
2023/05/31 02:20:57;;;;;;;3.08;2.20;;;15.00;43.40;;;17.52;33.91;97967.22;4962563;28;20054;-56
2023/05/31 02:23:24;;;;;;;5.97;1.98;;;14.90;43.20;;;17.48;33.89;97965.09;4965713;28;20043;-57
2023/05/31 02:25:55;;;;;;;4.40;1.80;;;14.80;42.90;;;17.43;34.10;97965.69;4966697;28;20047;-57
2023/05/31 02:28:22;;;;;;;3.47;2.00;;;14.80;43.30;;;17.41;34.02;97969.59;4962005;28;20070;-56
2023/05/31 02:30:56;;;;;;;3.40;1.95;;;14.80;43.10;;;17.40;34.02;97957.19;4978270;28;20450;-56
2023/05/31 02:33:25;;;;;;;4.22;2.08;;;14.80;43.70;;;17.40;34.19;97973.31;4982053;28;20451;-58
2023/05/31 02:35:53;;;;;;;4.70;2.10;;;14.80;43.50;;;17.37;34.38;97969.19;4964629;28;20054;-57
2023/05/31 02:38:21;;;;;;;7.32;3.08;;;14.80;44.70;;;17.34;34.58;97966.03;4963662;28;20047;-57
2023/05/31 02:40:49;;;;;;;3.03;2.13;;;14.70;43.90;;;17.28;34.80;97957.72;4962178;28;20522;-58
2023/05/31 02:43:16;;;;;;;3.65;1.85;;;14.70;44.40;;;17.22;34.72;97958.50;4965955;28;20506;-57
2023/05/31 02:45:44;;;;;;;2.55;1.95;;;14.60;44.70;;;17.20;34.85;97962.44;4967023;28;20065;-57
2023/05/31 02:48:12;;;;;;;5.88;2.22;;;14.50;44.80;;;17.18;34.92;97957.25;4946707;28;20047;-57
2023/05/31 02:50:40;;;;;;;5.60;2.45;;;14.60;44.70;;;17.11;35.10;97954.50;4961649;28;20058;-57
2023/05/31 02:53:22;;;;;;;4.13;2.13;;;14.40;45.00;;;17.10;34.97;97954.72;4955336;28;20423;-58
2023/05/31 02:55:55;;;;;;;4.15;2.17;;;14.30;45.00;;;17.04;35.20;97959.00;4978115;28;20047;-57
2023/05/31 02:58:23;;;;;;;4.80;2.33;;;14.40;45.30;;;16.99;34.88;97964.13;4966931;28;20494;-57
2023/05/31 03:01:11;;;;;;;6.95;2.17;;;14.30;45.30;;;16.98;35.16;97965.13;4942627;28;20070;-58
2023/05/31 03:03:48;;;;;;;3.53;1.80;;;14.30;45.20;;;16.95;35.32;97959.34;4961376;28;20050;-57
2023/05/31 03:06:23;;;;;;;4.72;1.80;;;14.20;45.30;;;16.93;35.16;97962.22;4955324;28;20051;-57
2023/05/31 03:08:50;;;;;;;4.25;2.13;;;14.20;45.30;;;16.90;35.50;97957.22;4977725;28;20058;-58
2023/05/31 03:11:20;;;;;;;3.92;2.25;;;14.20;45.70;;;16.88;35.80;97964.66;4964818;28;20053;-58
2023/05/31 03:13:48;;;;;;;3.92;1.88;;;14.20;45.90;;;16.86;35.69;97964.84;4961370;28;20058;-58
2023/05/31 03:16:16;;;;;;;3.30;1.80;;;14.20;46.00;;;16.83;35.88;97962.56;4961639;28;20511;-59
2023/05/31 03:18:44;;;;;;;3.83;2.45;;;14.10;46.20;;;16.80;35.76;97956.69;4961065;28;20043;-58
2023/05/31 03:21:12;;;;;;;4.13;2.63;;;14.10;46.60;;;16.76;35.85;97955.41;4965819;28;20414;-57
2023/05/31 03:23:40;;;;;;;5.15;2.08;;;14.00;46.40;;;16.73;35.98;97957.47;4964644;28;20058;-58
2023/05/31 03:26:10;;;;;;;3.10;2.08;;;14.00;46.40;;;16.72;36.25;97963.03;4962071;28;20047;-57
2023/05/31 03:28:37;;;;;;;4.30;2.10;;;14.00;46.70;;;16.69;36.01;97958.03;4960969;28;20047;-58
2023/05/31 03:31:05;;;;;;;4.35;2.00;;;14.00;46.70;;;16.69;36.13;97966.94;4979070;28;20054;-58
2023/05/31 03:33:33;;;;;;;3.72;2.05;;;14.00;46.90;;;16.68;36.16;97967.13;4964877;28;20047;-58
2023/05/31 03:36:01;;;;;;;3.28;1.70;;;14.00;46.90;;;16.68;36.13;97967.13;4963275;28;20058;-57
2023/05/31 03:38:29;;;;;;;5.28;2.00;;;14.00;46.60;;;16.69;36.20;97961.56;4960745;28;20427;-58
2023/05/31 03:40:57;;;;;;;5.38;2.55;;;14.10;46.50;;;16.68;36.01;97962.59;4962168;28;20058;-56
2023/05/31 03:43:25;;;;;;;3.53;2.58;;;14.10;46.50;;;16.66;36.29;97969.19;4965527;28;20153;-58
2023/05/31 03:45:54;;;;;;;4.13;2.03;;;14.00;46.60;;;16.61;36.10;97977.81;4964189;28;20054;-58
2023/05/31 03:48:21;;;;;;;2.55;2.15;;;14.00;46.60;;;16.61;36.11;97977.81;4976314;28;20055;-58
2023/05/31 03:50:49;;;;;;;4.60;2.20;;;13.90;46.60;;;16.60;36.20;97970.78;4976664;28;20051;-58
2023/05/31 03:53:17;;;;;;;6.05;2.40;;;13.90;46.60;;;16.63;36.25;97981.13;4964090;28;20057;-58
2023/05/31 03:55:44;;;;;;;3.80;2.22;;;14.00;46.70;;;16.64;35.95;97972.06;4963991;28;20062;-58
2023/05/31 03:58:13;;;;;;;6.05;2.47;;;14.00;46.20;;;16.68;35.82;97978.72;4963582;28;20043;-58
2023/05/31 04:00:41;;;;;;;3.78;2.20;;;14.10;45.80;;;16.70;35.62;97973.16;4964260;28;20054;-58
2023/05/31 04:03:11;;;;;;;4.25;1.90;;;14.10;45.60;;;16.73;35.93;97981.66;4962554;28;20054;-58
2023/05/31 04:05:41;;;;;;;4.15;2.28;;;14.20;45.70;;;16.77;35.71;97979.44;4960186;28;20046;-58
2023/05/31 04:08:09;;;;;;;3.17;2.00;;;14.20;45.40;;;16.80;35.93;97976.34;4961895;28;20065;-58
2023/05/31 04:10:37;;;;;;;6.07;2.20;;;14.30;45.60;;;16.79;35.53;97979.22;4965124;28;20043;-58
2023/05/31 04:13:04;;;;;;;4.63;2.33;;;14.30;45.50;;;16.81;35.69;97980.69;4961721;28;20049;-58
2023/05/31 04:15:32;;;;;;;4.97;2.63;;;14.30;45.40;;;16.83;35.58;97980.56;4960365;28;20043;-58
2023/05/31 04:18:03;;;;;;;4.63;2.35;;;14.30;45.40;;;16.87;35.57;97981.81;4977258;28;20511;-57
2023/05/31 04:20:31;;;;;;;2.70;1.85;;;14.30;45.20;;;16.90;35.69;97986.78;4979887;28;20049;-58
2023/05/31 04:22:59;;;;;;;2.85;2.08;;;14.40;45.10;;;16.93;35.53;97986.44;4961778;28;20163;-59
2023/05/31 04:25:27;;;;;;;7.38;2.92;;;14.40;45.10;;;16.92;35.62;97990.97;4960583;28;20043;-58
2023/05/31 04:27:56;;;;;;;6.20;2.33;;;14.40;45.30;;;16.88;35.85;97992.38;4962445;28;20046;-58
2023/05/31 04:30:24;;;;;;;3.90;1.92;;;14.30;45.50;;;16.91;35.78;97988.47;4979658;28;20051;-58
2023/05/31 04:32:52;;;;;;;4.70;2.15;;;14.30;45.60;;;16.90;35.70;97990.34;4978611;28;20518;-58
2023/05/31 04:35:20;;;;;;;4.47;2.15;;;14.30;45.50;;;16.93;35.66;97989.13;4960272;28;20523;-56
2023/05/31 04:37:52;;;;;;;2.85;1.90;;;14.40;45.40;;;16.92;35.84;97996.34;4960018;28;20047;-58
2023/05/31 04:40:20;;;;;;;4.38;1.83;;;14.40;45.20;;;16.93;35.62;97998.00;4963411;28;20050;-59
2023/05/31 04:42:48;;;;;;;5.70;2.42;;;14.40;45.30;;;16.97;35.75;97998.44;4979302;28;20062;-58
2023/05/31 04:45:25;;;;;;;3.05;2.10;;;14.50;45.30;;;17.01;35.55;97999.72;4953712;28;20047;-58
2023/05/31 04:47:55;;;;;;;5.07;2.13;;;14.50;45.10;;;16.99;35.58;98007.16;4975913;28;20515;-58
2023/05/31 04:50:23;;;;;;;4.55;2.80;;;14.50;45.10;;;17.01;35.56;98005.09;4963373;28;20054;-58
2023/05/31 04:52:51;;;;;;;3.60;2.17;;;14.50;45.90;;;17.02;35.64;97998.72;4962539;28;20061;-58
2023/05/31 04:55:19;;;;;;;3.75;2.38;;;14.50;45.10;;;17.05;35.68;97994.78;4959765;28;20051;-58
2023/05/31 04:57:46;;;;;;;5.45;2.08;;;14.60;45.10;;;17.05;35.66;97997.50;4975495;28;20047;-58
2023/05/31 05:00:16;;;;;;;4.25;1.92;;;14.60;45.20;;;17.07;35.83;97998.13;4959691;28;20043;-58
2023/05/31 05:03:00;;;;;;;4.45;2.15;;;14.60;45.40;;;17.03;35.90;97997.66;4961322;28;20515;-59
2023/05/31 05:05:29;;;;;;;3.30;2.10;;;14.50;45.70;;;17.01;36.05;97999.72;4962997;28;20050;-57
2023/05/31 05:07:58;;;;;;;5.10;2.72;;;14.50;45.70;;;17.05;35.97;98003.69;4961610;28;20043;-58
2023/05/31 05:10:26;;;;;;;3.70;1.85;;;14.60;45.80;;;17.06;36.14;98008.06;4959600;28;20047;-58
2023/05/31 05:12:54;;;;;;;4.93;2.00;;;14.60;45.90;;;17.10;36.09;98009.34;4944307;28;20054;-58
2023/05/31 05:15:22;;;;;;;5.55;2.45;;;14.60;45.90;;;17.13;36.13;98017.00;4962748;28;20407;-57
2023/05/31 05:17:50;;;;;;;3.65;1.90;;;14.60;45.80;;;17.19;35.92;98018.06;4945568;28;20047;-59
2023/05/31 05:20:19;;;;;;;3.00;2.03;;;14.70;45.70;;;17.21;36.05;98012.50;4958603;28;20046;-59
2023/05/31 05:22:52;;;;;;;5.57;2.10;;;14.70;45.60;;;17.21;36.20;98015.19;4959594;28;20043;-59
2023/05/31 05:25:22;;;;;;;3.75;2.53;;;14.70;45.80;;;17.20;36.20;98011.69;4963105;28;20046;-59
2023/05/31 05:27:50;;;;;;;3.08;2.08;;;14.70;45.70;;;17.25;36.15;98009.25;4962479;28;20049;-59
2023/05/31 05:30:19;;;;;;;6.47;2.33;;;14.80;45.70;;;17.29;36.25;98013.22;4975778;28;20047;-59
2023/05/31 05:32:49;;;;;;;4.65;2.20;;;14.80;45.90;;;17.37;36.01;98016.75;4958246;28;20047;-59
2023/05/31 05:35:17;;;;;;;4.65;2.00;;;14.90;45.60;;;17.40;35.95;98009.13;4977473;28;20288;-59
2023/05/31 05:37:44;;;;;;;4.43;2.10;;;15.00;45.50;;;17.49;36.20;98013.34;4975253;28;20047;-59
2023/05/31 05:40:13;;;;;;;5.97;2.40;;;15.10;45.40;;;17.51;36.23;98013.97;4962282;28;20054;-59
2023/05/31 05:42:41;;;;;;;5.90;2.40;;;15.10;45.30;;;17.55;36.20;98019.00;4977806;28;20039;-59
2023/05/31 05:45:10;;;;;;;3.83;2.35;;;15.20;45.40;;;17.59;36.07;98015.69;4977769;28;20427;-59
2023/05/31 05:47:40;;;;;;;3.95;2.25;;;15.20;45.20;;;17.66;36.01;98013.03;4962675;28;20039;-59
2023/05/31 05:50:08;;;;;;;10.07;2.45;;;15.30;45.20;;;17.70;35.78;98012.47;4975913;28;20507;-59
2023/05/31 05:52:37;;;;;;;4.10;2.22;;;15.30;45.00;;;17.76;35.75;98013.53;4958345;28;20555;-59
2023/05/31 05:55:08;;;;;;;5.75;2.65;;;15.40;45.00;;;17.81;35.69;98012.94;4977254;28;20062;-58
2023/05/31 05:57:36;;;;;;;4.85;2.55;;;15.40;44.80;;;17.86;35.60;98014.03;4963720;28;20431;-59
2023/05/31 06:00:28;;;;;;;5.68;2.97;;;15.50;44.80;;;17.94;35.74;98022.97;4956848;28;20062;-59
2023/05/31 06:02:55;;;;;;;4.22;2.42;;;15.50;44.90;;;17.95;35.66;98013.84;4959414;28;20043;-59
2023/05/31 06:05:26;;;;;;;4.05;2.40;;;15.60;44.70;;;17.95;35.78;98009.31;4962666;28;20050;-59
2023/05/31 06:07:54;;;;;;;3.63;2.35;;;15.60;44.90;;;18.03;35.64;98017.22;4961367;28;20411;-59
2023/05/31 06:10:23;;;;;;;2.53;1.77;;;15.70;44.90;;;18.07;35.80;98013.09;4958773;28;20089;-59
2023/05/31 06:12:51;;;;;;;5.10;2.70;;;15.70;44.80;;;18.15;35.80;98013.97;4957504;28;20058;-60
2023/05/31 06:15:20;;;;;;;4.95;2.20;;;15.80;45.00;;;18.22;35.73;98018.34;4961045;28;20050;-59
2023/05/31 06:17:48;;;;;;;3.22;2.40;;;15.80;44.70;;;18.30;35.44;98022.75;4978609;28;20442;-60
2023/05/31 06:20:16;;;;;;;5.15;2.25;;;15.90;44.70;;;18.36;35.53;98021.94;4951464;28;20142;-60
2023/05/31 06:22:44;;;;;;;4.70;2.28;;;15.90;44.50;;;18.43;35.39;98013.84;4958760;28;20280;-59
2023/05/31 06:25:17;;;;;;;4.72;2.00;;;16.00;44.30;;;18.46;35.14;98022.38;4967559;28;20050;-60
2023/05/31 06:27:46;;;;;;;4.10;2.42;;;16.10;44.30;;;18.54;35.39;98017.84;4958736;28;20054;-60
2023/05/31 06:30:15;;;;;;;4.25;2.17;;;16.20;44.50;;;18.62;35.47;98021.16;4962730;28;20070;-60
2023/05/31 06:32:45;;;;;;;4.60;2.35;;;16.20;44.50;;;18.70;35.44;98017.44;4949126;28;20054;-60
2023/05/31 06:35:20;;;;;;;6.35;2.45;;;16.30;44.50;;;18.78;35.27;98013.72;4955375;28;20054;-60
2023/05/31 06:37:47;;;;;;;5.50;2.25;;;16.40;44.50;;;18.85;35.10;98015.44;4978336;28;20047;-60
2023/05/31 06:40:16;;;;;;;13.50;2.88;;;16.40;44.20;;;18.92;34.86;98011.91;4954409;28;20047;-61
2023/05/31 06:42:44;;;;;;;6.85;2.40;;;16.40;43.80;;;18.99;34.73;98013.59;4961739;28;20059;-60
2023/05/31 06:45:42;;;;;;;5.68;2.42;;;16.50;43.80;;;19.11;34.47;98012.97;4974109;28;20050;-61
2023/05/31 06:48:18;;;;;;;6.80;2.70;;;16.60;43.40;;;19.16;34.40;98014.03;4958522;28;20047;-61
2023/05/31 06:51:09;;;;;;;4.65;2.42;;;16.70;43.30;;;19.24;34.36;98015.69;4956596;28;20063;-62
2023/05/31 06:54:00;;;;;;;7.47;2.47;;;16.80;43.20;;;19.32;34.11;98012.75;4936948;28;20058;-61
2023/05/31 06:56:29;;;;;;;6.40;2.40;;;16.80;43.00;;;19.36;34.12;98015.88;4977934;28;20522;-61
2023/05/31 06:58:57;;;;;;;5.10;2.42;;;16.90;42.70;;;19.43;33.81;98006.75;4962369;28;20047;-61
2023/05/31 07:01:25;;;;;;;5.55;2.35;;;16.90;42.50;;;19.45;33.92;98004.66;4964714;28;20046;-61
2023/05/31 07:03:52;;;;;;;3.33;2.17;;;17.00;42.30;;;19.51;33.96;97999.47;4964773;28;20404;-61
2023/05/31 07:06:20;;;;;;;7.88;2.38;;;17.00;42.40;;;19.57;34.12;98001.31;4961668;28;20070;-61
2023/05/31 07:08:51;;;;;;;4.47;2.38;;;17.10;42.60;;;19.63;33.76;97997.78;4946587;28;20047;-61
2023/05/31 07:11:48;;;;;;;5.47;2.67;;;17.20;42.30;;;19.73;33.80;98002.78;4964529;28;20135;-62
2023/05/31 07:14:16;;;;;;;7.45;2.50;;;17.20;42.10;;;19.78;33.61;97998.41;4961417;28;20046;-61
2023/05/31 07:16:43;;;;;;;6.85;2.60;;;17.30;42.10;;;19.86;33.23;97998.16;4976843;28;20496;-59
2023/05/31 07:19:11;;;;;;;9.27;2.53;;;17.50;41.60;;;19.97;33.35;97995.88;4964034;28;20047;-55
2023/05/31 07:21:40;;;;;;;3.83;2.40;;;17.50;41.30;;;20.01;33.39;97995.22;4964968;28;20049;-55
2023/05/31 07:24:09;;;;;;;6.53;2.60;;;17.60;41.20;;;20.06;33.01;97999.97;4963885;28;20047;-49
2023/05/31 07:26:37;;;;;;;8.38;2.42;;;17.70;40.80;;;20.10;32.67;97997.69;4963274;28;20416;-53
2023/05/31 07:29:05;;;;;;;4.97;2.95;;;17.70;40.60;;;20.16;32.84;97999.53;4964713;28;20058;-51
2023/05/31 07:31:32;;;;;;;4.53;2.13;;;17.80;40.60;;;20.20;32.87;97998.03;4964023;28;20411;-53
2023/05/31 07:34:00;;;;;;;5.30;2.50;;;17.90;40.60;;;20.26;32.44;97997.22;4964591;28;20054;-51
2023/05/31 07:36:27;;;;;;;4.90;2.90;;;17.90;40.00;;;20.32;32.56;97987.41;4962818;28;20059;-50
2023/05/31 07:39:23;;;;;;;10.70;3.22;;;18.00;40.10;;;20.39;32.55;97990.91;4963612;28;20407;-53
2023/05/31 07:41:51;;;;;;;5.38;2.75;;;18.00;39.70;;;20.50;32.57;97984.00;4963629;28;20069;-51
2023/05/31 07:44:19;;;;;;;5.38;2.53;;;18.10;40.10;;;20.53;32.82;97986.25;4962603;28;20039;-53
2023/05/31 07:46:47;;;;;;;313.35;40.75;;;18.10;40.40;;;20.58;32.78;97987.25;4962573;28;20039;-50
2023/05/31 07:49:14;;;;;;;14.60;3.67;;;18.20;40.50;;;20.64;32.25;97983.72;4965586;28;20042;-48
2023/05/31 07:51:43;;;;;;;6.47;2.42;;;18.30;40.00;;;20.70;32.57;97987.41;4965367;28;20426;-49
2023/05/31 07:54:10;;;;;;;5.60;2.72;;;18.40;40.20;;;20.76;32.09;97981.16;4962918;28;20035;-51
2023/05/31 07:56:38;;;;;;;5.70;3.17;;;18.50;40.00;;;20.83;32.48;97973.81;4961963;28;20043;-49
2023/05/31 07:59:06;;;;;;;4.82;2.67;;;18.50;39.90;;;20.86;32.28;97972.56;4963100;28;20051;-50
2023/05/31 08:01:35;;;;;;;10.15;2.67;;;18.50;39.70;;;20.93;31.99;97965.19;4962925;28;20050;-49
2023/05/31 08:04:08;;;;;;;5.15;2.33;;;18.60;39.50;;;20.98;32.24;97969.97;4963127;28;20495;-49
2023/05/31 08:06:38;;;;;;;5.10;2.45;;;18.70;39.60;;;21.02;32.10;97961.19;4962045;28;20303;-50
2023/05/31 08:09:06;;;;;;;7.93;2.42;;;18.70;40.20;;;21.08;32.06;97962.19;4963681;28;20055;-49
2023/05/31 08:11:37;;;;;;;5.95;2.45;;;18.70;39.70;;;21.15;31.95;97967.53;4965195;28;20042;-52
2023/05/31 08:14:05;;;;;;;10.95;2.85;;;18.80;39.60;;;21.21;31.75;97950.41;4963481;28;20441;-56
2023/05/31 08:16:34;;;;;;;6.00;2.55;;;18.90;39.50;;;21.29;31.47;97955.53;4960934;28;20047;-54
2023/05/31 08:19:02;;;;;;;5.03;2.40;;;18.90;39.10;;;21.35;31.79;97954.66;4963313;28;20051;-56
2023/05/31 08:21:29;;;;;;;5.25;2.65;;;19.00;39.00;;;21.37;31.73;97954.44;4964799;28;20038;-60
2023/05/31 08:23:58;;;;;;;5.75;2.03;;;19.10;38.90;;;21.42;31.82;97959.97;4964091;28;20043;-58
2023/05/31 08:26:26;;;;;;;7.03;2.83;;;19.10;39.40;;;21.48;31.31;97947.47;4961956;28;20428;-57
2023/05/31 08:28:53;;;;;;;5.30;2.53;;;19.10;38.70;;;21.52;31.18;97945.97;4977068;28;20388;-57
2023/05/31 08:31:21;;;;;;;8.13;2.53;;;19.20;38.40;;;21.32;33.09;97956.97;4964216;28;20051;-58
2023/05/31 08:33:57;;;;;;;7.47;2.88;;;19.30;42.90;;;21.01;33.10;97955.97;4963876;28;20042;-55
2023/05/31 08:36:26;;;;;;;5.57;2.97;;;19.20;39.40;;;21.12;32.57;97955.28;4955197;28;20050;-56
2023/05/31 08:38:53;;;;;;;4.47;2.50;;;19.30;39.60;;;21.28;31.90;97943.03;4976790;28;20055;-54
2023/05/31 08:41:23;;;;;;;7.80;2.67;;;19.20;38.90;;;21.43;32.12;97943.56;4964508;28;20035;-55
2023/05/31 08:43:50;;;;;;;7.40;3.05;;;19.40;38.90;;;21.61;31.81;97948.16;4963377;28;20046;-54
2023/05/31 08:46:19;;;;;;;4.90;2.53;;;19.50;39.30;;;21.76;31.91;97949.69;4960219;28;20050;-55
2023/05/31 08:49:02;;;;;;;14.55;3.33;;;19.60;38.60;;;21.89;31.68;97941.41;4959598;28;20043;-42
2023/05/31 08:51:30;;;;;;;5.28;3.03;;;19.70;38.40;;;22.02;31.22;97943.09;4954080;28;20047;-41
2023/05/31 08:53:58;;;;;;;7.15;2.85;;;19.90;38.30;;;22.13;31.21;97941.53;4962093;28;20443;-40
2023/05/31 08:56:26;;;;;;;7.80;2.65;;;20.10;38.10;;;22.22;30.99;97942.88;4963755;28;20046;-40
2023/05/31 09:05:53;;;;;;;10.30;4.07;;;21.70;35.50;;;21.23;33.99;97940.19;5100517;27;20363;-38
2023/05/31 09:08:21;;;;;;;4.45;2.60;;;21.40;35.90;;;21.31;33.08;97934.47;5087276;28;20041;-38
2023/05/31 09:10:50;;;;;;;5.95;3.30;;;21.20;36.10;;;21.48;32.60;97931.22;5086997;28;20306;-41
2023/05/31 09:13:18;;;;;;;6.75;2.65;;;21.20;35.00;;;21.58;32.13;97943.19;5087495;28;20040;-39
2023/05/31 09:15:48;;;;;;;6.45;3.38;;;21.90;33.40;;;21.98;31.56;97937.34;5076279;28;20059;-38
2023/05/31 09:18:20;;;;;;;4.13;2.75;;;22.10;33.30;;;22.30;31.02;97944.47;5075290;28;20045;-38
2023/05/31 09:20:49;;;;;;;63.72;9.98;;;22.10;33.10;;;23.64;30.31;97933.13;5076160;28;20076;-38
2023/05/31 09:23:18;;;;;;;10.63;2.90;;;25.00;30.00;;;23.70;29.37;97936.78;5076523;28;20037;-39
2023/05/31 09:25:51;;;;;;;3.92;2.95;;;24.20;30.10;;;23.51;29.33;97938.78;5082908;28;20538;-39
2023/05/31 09:28:21;;;;;;;8.82;3.10;;;23.50;30.50;;;23.34;29.52;97946.81;5076417;28;20043;-38
2023/05/31 09:31:05;;;;;;;6.55;3.20;;;22.80;32.00;;;23.21;30.02;97947.09;5074729;28;20066;-38
2023/05/31 09:33:44;;;;;;;6.35;2.90;;;22.40;32.10;;;23.11;29.82;97940.34;5076298;28;20044;-37
2023/05/31 09:36:15;;;;;;;10.50;3.78;;;22.20;33.00;;;23.05;29.97;97945.88;5079231;28;20040;-38
2023/05/31 09:38:43;;;;;;;6.75;3.08;;;21.90;34.00;;;23.00;30.02;97947.38;5078437;28;20040;-38
2023/05/31 09:41:15;;;;;;;9.43;3.22;;;21.80;34.10;;;22.95;29.78;97936.41;5076149;28;20052;-38
2023/05/31 09:43:45;;;;;;;9.38;3.13;;;21.80;34.00;;;22.90;30.11;97932.72;5076138;28;20042;-38
2023/05/31 09:46:14;;;;;;;5.28;3.03;;;21.80;34.20;;;22.88;30.17;97934.84;5078745;28;20063;-39
2023/05/31 09:48:44;;;;;;;6.00;3.53;;;21.70;34.30;;;22.88;29.74;97937.56;5079286;28;20503;-38
2023/05/31 09:51:15;;;;;;;16.55;4.10;;;21.70;33.70;;;22.88;29.61;97943.81;5076258;28;20146;-39
2023/05/31 09:53:44;;;;;;;5.55;2.47;;;21.70;33.80;;;22.90;29.92;97930.00;5091584;28;20045;-38
2023/05/31 09:56:19;;;;;;;7.07;3.08;;;21.70;33.90;;;22.93;29.75;97927.63;5094179;28;20044;-38
2023/05/31 09:58:52;;;;;;;5.20;2.70;;;21.70;33.40;;;22.97;29.06;97922.56;5060697;28;20052;-38
2023/05/31 10:01:19;;;;;;;6.85;2.95;;;21.80;32.30;;;22.97;28.75;97931.56;5075458;28;20043;-39
2023/05/31 10:03:50;;;;;;;8.95;3.00;;;21.80;32.50;;;23.00;28.58;97924.81;5075417;28;20431;-38
2023/05/31 10:06:19;;;;;;;3.72;2.42;;;21.90;32.00;;;23.02;28.58;97930.84;5075621;28;20496;-39
2023/05/31 10:08:47;;;;;;;7.38;4.18;;;21.90;32.20;;;23.05;28.29;97930.44;5075713;28;20384;-38
2023/05/31 10:11:26;;;;;;;6.25;3.80;;;21.90;31.60;;;23.11;28.64;97934.06;5078632;28;20396;-38
2023/05/31 10:13:59;;;;;;;5.20;2.60;;;22.00;31.70;;;23.16;28.48;97916.00;5077101;28;20041;-39
2023/05/31 10:16:34;;;;;;;6.90;2.80;;;22.10;31.80;;;23.23;28.18;97920.50;5065309;28;20298;-38
2023/05/31 10:19:09;;;;;;;4.88;2.65;;;22.10;31.20;;;23.27;28.10;97913.53;5062447;28;20040;-38
2023/05/31 10:21:42;;;;;;;5.05;3.15;;;22.20;31.30;;;23.30;28.41;97918.50;5065095;28;20052;-39
2023/05/31 10:24:23;;;;;;;6.22;2.75;;;22.20;31.70;;;23.33;28.62;97905.25;5062627;28;20075;-39
2023/05/31 10:27:07;;;;;;;8.95;3.58;;;22.30;31.50;;;23.40;28.54;97924.16;5060895;28;20049;-39
2023/05/31 10:29:53;;;;;;;6.22;3.33;;;22.40;31.50;;;23.45;28.00;97924.28;5064293;28;20419;-39
2023/05/31 10:32:28;;;;;;;3.42;2.60;;;22.40;30.00;;;23.46;27.91;97912.34;5064604;28;20032;-39
2023/05/31 10:34:55;;;;;;;4.72;2.97;;;22.30;30.80;;;23.50;28.09;97916.25;5063222;28;20059;-39
2023/05/31 10:37:24;;;;;;;4.75;2.88;;;22.40;31.40;;;23.54;27.75;97906.53;5061630;28;20067;-40
2023/05/31 10:40:19;;;;;;;4.18;2.63;;;22.50;30.40;;;23.58;27.49;97905.00;5060375;28;20402;-40